createdAt,value
2019-01-20T00:01:59.007Z,99.70
2019-01-20T00:04:29.696Z,99.90
2019-01-20T00:07:13.081Z,99.90
2019-01-20T00:09:43.707Z,99.80
2019-01-20T00:12:14.262Z,99.80
2019-01-20T00:14:44.908Z,99.90
2019-01-20T00:17:15.412Z,99.90
2019-01-20T00:19:45.924Z,99.90
2019-01-20T00:22:16.610Z,99.90
2019-01-20T00:24:47.078Z,99.90
2019-01-20T00:27:17.809Z,99.90
2019-01-20T00:29:49.567Z,99.90
2019-01-20T00:32:20.252Z,99.90
2019-01-20T00:34:50.750Z,99.90
2019-01-20T00:37:22.232Z,99.90
2019-01-20T00:39:52.839Z,99.90
2019-01-20T00:42:23.548Z,99.90
2019-01-20T00:44:54.274Z,99.90
2019-01-20T00:47:25.062Z,99.90
2019-01-20T00:49:55.740Z,99.90
2019-01-20T00:52:26.302Z,99.90
2019-01-20T00:54:56.915Z,99.90
2019-01-20T00:57:27.607Z,99.90
2019-01-20T00:59:58.470Z,99.90
2019-01-20T01:02:29.221Z,99.90
2019-01-20T01:04:59.715Z,99.90
2019-01-20T01:07:30.951Z,99.90
2019-01-20T01:10:01.642Z,99.90
2019-01-20T01:12:32.451Z,99.90
2019-01-20T01:15:03.043Z,99.90
2019-01-20T01:17:33.691Z,99.90
2019-01-20T01:20:05.593Z,99.90
2019-01-20T01:22:36.105Z,99.90
2019-01-20T01:25:08.541Z,99.90
2019-01-20T01:27:39.205Z,99.90
2019-01-20T01:30:13.475Z,99.90
2019-01-20T01:32:44.012Z,99.90
2019-01-20T01:35:14.650Z,99.90
2019-01-20T01:37:45.523Z,99.90
2019-01-20T01:40:17.452Z,99.90
2019-01-20T01:42:47.994Z,99.90
2019-01-20T01:45:20.364Z,99.90
2019-01-20T01:47:51.175Z,99.90
2019-01-20T01:50:21.900Z,99.90
2019-01-20T01:52:52.737Z,99.90
2019-01-20T01:55:23.366Z,99.90
2019-01-20T01:57:54.039Z,99.90
2019-01-20T02:00:25.448Z,99.90
2019-01-20T02:02:55.957Z,99.90
2019-01-20T02:05:26.742Z,99.90
2019-01-20T02:07:57.394Z,99.90
2019-01-20T02:10:27.910Z,99.70
2019-01-20T02:12:58.702Z,99.80
2019-01-20T02:15:29.140Z,99.80
2019-01-20T02:17:59.864Z,99.90
2019-01-20T02:20:30.501Z,99.90
2019-01-20T02:23:01.080Z,99.80
2019-01-20T02:25:32.058Z,99.70
2019-01-20T02:28:03.090Z,99.90
2019-01-20T02:30:33.880Z,99.90
2019-01-20T02:33:04.771Z,99.90
2019-01-20T02:35:35.461Z,99.90
2019-01-20T02:38:06.232Z,99.90
2019-01-20T02:40:36.970Z,99.90
2019-01-20T02:43:07.883Z,99.90
2019-01-20T02:45:38.581Z,99.90
2019-01-20T02:48:09.203Z,99.90
2019-01-20T02:50:39.953Z,99.90
2019-01-20T02:53:10.630Z,99.90
2019-01-20T02:55:42.388Z,99.90
2019-01-20T02:58:13.352Z,99.90
2019-01-20T03:00:44.058Z,99.90
2019-01-20T03:03:14.680Z,99.90
2019-01-20T03:05:52.369Z,99.90
2019-01-20T03:08:23.123Z,99.90
2019-01-20T03:10:54.305Z,99.90
2019-01-20T03:13:24.912Z,99.80
2019-01-20T03:15:55.385Z,99.70
2019-01-20T03:18:25.957Z,99.90
2019-01-20T03:20:56.966Z,99.90
2019-01-20T03:23:27.672Z,99.90
2019-01-20T03:25:58.143Z,99.90
2019-01-20T03:28:28.825Z,99.90
2019-01-20T03:30:59.384Z,99.90
2019-01-20T03:33:29.793Z,99.90
2019-01-20T03:36:00.332Z,99.90
2019-01-20T03:38:31.955Z,99.90
2019-01-20T03:41:02.554Z,99.90
2019-01-20T03:43:33.009Z,99.90
2019-01-20T03:46:03.797Z,99.90
2019-01-20T03:48:34.647Z,99.90
2019-01-20T03:51:05.314Z,99.90
2019-01-20T03:53:35.982Z,99.90
2019-01-20T03:56:06.676Z,99.90
2019-01-20T03:58:37.458Z,99.90
2019-01-20T04:01:08.155Z,99.70
2019-01-20T04:03:39.067Z,99.60
2019-01-20T04:06:09.651Z,99.60
2019-01-20T04:08:40.166Z,99.70
2019-01-20T04:11:10.769Z,99.60
2019-01-20T04:13:41.243Z,99.60
2019-01-20T04:16:12.243Z,99.50
2019-01-20T04:18:42.992Z,99.50
2019-01-20T04:21:13.811Z,99.60
2019-01-20T04:23:44.563Z,99.60
2019-01-20T04:26:15.030Z,99.60
2019-01-20T04:28:45.551Z,99.50
2019-01-20T04:31:16.065Z,99.60
2019-01-20T04:33:46.713Z,99.50
2019-01-20T04:36:17.357Z,99.50
2019-01-20T04:38:47.865Z,99.50
2019-01-20T04:41:18.855Z,99.40
2019-01-20T04:43:49.633Z,99.50
2019-01-20T04:46:20.099Z,99.50
2019-01-20T04:48:50.899Z,99.50
2019-01-20T04:51:21.417Z,99.50
2019-01-20T04:53:52.226Z,99.70
2019-01-20T04:56:22.834Z,99.80
2019-01-20T04:58:53.283Z,99.70
2019-01-20T05:01:23.850Z,99.60
2019-01-20T05:03:54.313Z,99.70
2019-01-20T05:06:25.050Z,99.60
2019-01-20T05:08:55.508Z,99.60
2019-01-20T05:11:26.274Z,99.60
2019-01-20T05:13:57.048Z,99.70
2019-01-20T05:16:27.908Z,99.90
2019-01-20T05:18:58.362Z,99.70
2019-01-20T05:21:28.866Z,99.90
2019-01-20T05:23:59.543Z,99.90
2019-01-20T05:26:30.110Z,99.90
2019-01-20T05:29:00.604Z,99.70
2019-01-20T05:31:31.086Z,99.90
2019-01-20T05:34:01.890Z,99.90
2019-01-20T05:36:32.358Z,99.90
2019-01-20T05:39:03.397Z,99.90
2019-01-20T05:41:33.916Z,99.90
2019-01-20T05:44:04.694Z,99.90
2019-01-20T05:46:35.259Z,99.80
2019-01-20T05:49:06.096Z,99.90
2019-01-20T05:51:36.923Z,99.90
2019-01-20T05:54:07.768Z,99.80
2019-01-20T05:56:38.597Z,99.70
2019-01-20T05:59:09.356Z,99.60
2019-01-20T06:01:39.995Z,99.80
2019-01-20T06:04:10.651Z,99.70
2019-01-20T06:06:41.206Z,99.70
2019-01-20T06:09:11.867Z,99.60
2019-01-20T06:11:42.836Z,99.50
2019-01-20T06:14:13.281Z,99.50
2019-01-20T06:16:43.712Z,99.50
2019-01-20T06:19:14.139Z,99.40
2019-01-20T06:21:45.035Z,99.80
2019-01-20T06:24:15.612Z,99.90
2019-01-20T06:26:48.303Z,99.80
2019-01-20T06:29:19.228Z,99.60
2019-01-20T06:31:49.708Z,99.50
2019-01-20T06:34:20.603Z,99.50
2019-01-20T06:36:51.069Z,99.50
2019-01-20T06:39:21.505Z,99.80
2019-01-20T06:41:52.149Z,99.90
2019-01-20T06:44:22.763Z,99.80
2019-01-20T06:46:53.305Z,99.80
2019-01-20T06:49:23.830Z,99.70
2019-01-20T06:51:54.247Z,99.50
2019-01-20T06:54:24.784Z,99.50
2019-01-20T06:56:55.358Z,99.60
2019-01-20T06:59:26.021Z,99.90
2019-01-20T07:01:56.414Z,99.90
2019-01-20T07:04:27.036Z,99.90
2019-01-20T07:06:57.466Z,99.90
2019-01-20T07:09:28.366Z,99.90
2019-01-20T07:11:59.009Z,99.90
2019-01-20T07:14:29.860Z,99.90
2019-01-20T07:17:00.484Z,99.90
2019-01-20T07:19:31.440Z,99.90
2019-01-20T07:22:01.948Z,99.90
2019-01-20T07:24:32.674Z,99.90
2019-01-20T07:27:03.677Z,99.90
2019-01-20T07:29:34.420Z,99.90
2019-01-20T07:32:05.079Z,99.90
2019-01-20T07:34:35.858Z,99.90
2019-01-20T07:37:06.610Z,99.90
2019-01-20T07:39:37.341Z,99.90
2019-01-20T07:42:07.994Z,99.90
2019-01-20T07:44:38.893Z,99.90
2019-01-20T07:47:10.115Z,99.90
2019-01-20T07:49:40.999Z,99.80
2019-01-20T07:52:11.690Z,99.80
2019-01-20T07:54:42.351Z,99.60
2019-01-20T07:57:12.945Z,99.50
2019-01-20T07:59:43.776Z,99.30
2019-01-20T08:02:14.755Z,99.10
2019-01-20T08:04:45.263Z,99.20
2019-01-20T08:07:15.977Z,99.20
2019-01-20T08:09:46.845Z,99.30
2019-01-20T08:12:23.508Z,99.50
2019-01-20T08:14:49.469Z,99.80
2019-01-20T08:17:20.282Z,99.90
2019-01-20T08:19:51.233Z,99.80
2019-01-20T08:22:22.005Z,99.80
2019-01-20T08:24:52.558Z,99.70
2019-01-20T08:27:23.302Z,99.00
2019-01-20T08:29:54.054Z,98.50
2019-01-20T08:32:25.222Z,98.20
2019-01-20T08:34:56.154Z,98.30
2019-01-20T08:37:28.909Z,98.10
2019-01-20T08:39:59.260Z,98.10
2019-01-20T08:42:30.041Z,98.30
2019-01-20T08:45:00.634Z,98.50
2019-01-20T08:47:57.923Z,98.50
2019-01-20T08:50:28.508Z,98.40
2019-01-20T08:52:59.560Z,97.70
2019-01-20T08:55:31.644Z,97.10
2019-01-20T08:58:02.735Z,96.70
2019-01-20T09:00:34.957Z,96.30
2019-01-20T09:03:05.808Z,95.90
2019-01-20T09:05:36.461Z,95.60
2019-01-20T09:08:09.101Z,95.70
2019-01-20T09:10:39.821Z,96.10
2019-01-20T09:13:11.335Z,96.50
2019-01-20T09:15:42.089Z,96.50
2019-01-20T09:18:12.927Z,96.70
2019-01-20T09:20:43.406Z,96.40
2019-01-20T09:23:13.975Z,97.00
2019-01-20T09:25:44.643Z,97.10
2019-01-20T09:28:15.293Z,96.90
2019-01-20T09:30:46.015Z,97.00
2019-01-20T09:33:24.296Z,97.40
2019-01-20T09:35:48.657Z,97.50
2019-01-20T09:38:19.405Z,97.50
2019-01-20T09:40:49.917Z,97.30
2019-01-20T09:43:20.729Z,97.00
2019-01-20T09:45:52.111Z,97.10
2019-01-20T09:48:22.692Z,97.10
2019-01-20T09:50:53.312Z,97.50
2019-01-20T09:53:23.921Z,97.40
2019-01-20T09:55:54.655Z,96.70
2019-01-20T09:58:25.496Z,97.00
2019-01-20T10:00:56.333Z,96.70
2019-01-20T10:03:27.452Z,96.70
2019-01-20T10:05:59.312Z,96.90
2019-01-20T10:08:30.288Z,96.40
2019-01-20T10:11:02.114Z,96.20
2019-01-20T10:13:37.892Z,96.20
2019-01-20T10:16:13.338Z,96.00
2019-01-20T10:18:44.174Z,95.70
2019-01-20T10:21:15.134Z,95.20
2019-01-20T10:23:45.906Z,95.30
2019-01-20T10:26:16.719Z,94.70
2019-01-20T10:28:47.268Z,94.80
2019-01-20T10:31:17.727Z,95.20
2019-01-20T10:33:48.234Z,95.20
2019-01-20T10:36:19.020Z,95.30
2019-01-20T10:38:49.677Z,94.90
2019-01-20T10:41:20.149Z,94.70
2019-01-20T10:43:50.969Z,94.50
2019-01-20T10:46:21.374Z,94.80
2019-01-20T10:48:52.211Z,94.70
2019-01-20T10:51:23.003Z,94.80
2019-01-20T10:53:54.665Z,95.00
2019-01-20T10:56:25.639Z,95.00
2019-01-20T10:58:56.711Z,95.20
2019-01-20T11:01:27.685Z,94.40
2019-01-20T11:03:58.569Z,94.30
2019-01-20T11:06:29.265Z,94.00
2019-01-20T11:08:59.855Z,94.30
2019-01-20T11:11:30.581Z,94.60
2019-01-20T11:14:01.499Z,94.50
2019-01-20T11:16:32.531Z,94.30
2019-01-20T11:19:03.472Z,94.40
2019-01-20T11:21:34.354Z,94.10
2019-01-20T11:24:05.523Z,93.50
2019-01-20T11:26:36.620Z,93.20
2019-01-20T11:29:07.295Z,93.30
2019-01-20T11:31:38.131Z,92.80
2019-01-20T11:34:09.030Z,92.10
2019-01-20T11:36:39.940Z,91.40
2019-01-20T11:39:11.504Z,91.60
2019-01-20T11:41:42.467Z,91.50
2019-01-20T11:44:16.996Z,91.20
2019-01-20T11:46:45.498Z,91.00
2019-01-20T11:49:16.299Z,91.10
2019-01-20T11:51:46.912Z,91.00
2019-01-20T11:54:17.616Z,90.40
2019-01-20T11:56:48.444Z,90.60
2019-01-20T11:59:19.012Z,90.00
2019-01-20T12:01:50.899Z,89.20
2019-01-20T12:04:21.504Z,89.40
2019-01-20T12:06:52.194Z,90.30
2019-01-20T12:09:22.724Z,90.00
2019-01-20T12:11:53.448Z,90.30
2019-01-20T12:14:24.411Z,90.70
2019-01-20T12:16:56.240Z,90.20
2019-01-20T12:19:26.724Z,89.30
2019-01-20T12:21:57.652Z,88.30
2019-01-20T12:24:28.135Z,88.50
2019-01-20T12:26:59.074Z,88.10
2019-01-20T12:29:29.592Z,88.10
2019-01-20T12:32:00.330Z,86.50
2019-01-20T12:34:31.960Z,86.50
2019-01-20T12:37:02.983Z,83.60
2019-01-20T12:39:33.801Z,83.30
2019-01-20T12:42:04.477Z,81.50
2019-01-20T12:44:35.343Z,80.90
2019-01-20T12:47:06.209Z,74.80
2019-01-20T12:49:37.082Z,73.80
2019-01-20T12:52:07.943Z,72.90
2019-01-20T12:54:38.757Z,70.80
2019-01-20T12:57:09.519Z,68.80
2019-01-20T12:59:40.389Z,69.40
2019-01-20T13:02:10.993Z,71.70
2019-01-20T13:04:42.641Z,73.60
2019-01-20T13:07:13.724Z,76.80
2019-01-20T13:09:44.365Z,81.50
2019-01-20T13:12:15.051Z,81.70
2019-01-20T13:14:46.171Z,83.50
2019-01-20T13:17:16.802Z,86.50
2019-01-20T13:19:47.353Z,89.20
2019-01-20T13:22:18.202Z,89.10
2019-01-20T13:24:48.762Z,89.90
2019-01-20T13:27:19.620Z,90.50
2019-01-20T13:29:50.318Z,91.10
2019-01-20T13:32:21.090Z,91.70
2019-01-20T13:34:51.774Z,92.30
2019-01-20T13:37:22.454Z,93.00
2019-01-20T13:39:53.424Z,93.90
2019-01-20T13:42:24.310Z,94.00
2019-01-20T13:44:55.002Z,94.10
2019-01-20T13:47:25.815Z,94.10
2019-01-20T13:49:56.306Z,94.00
2019-01-20T13:52:26.696Z,93.70
2019-01-20T13:54:57.452Z,94.10
2019-01-20T13:57:28.090Z,94.50
2019-01-20T13:59:58.760Z,94.50
2019-01-20T14:02:29.537Z,94.40
2019-01-20T14:05:00.252Z,94.50
2019-01-20T14:07:31.808Z,94.70
2019-01-20T14:10:14.118Z,94.80
2019-01-20T14:12:45.870Z,94.80
2019-01-20T14:15:16.783Z,95.10
2019-01-20T14:17:47.428Z,94.90
2019-01-20T14:20:19.859Z,95.00
2019-01-20T14:22:50.703Z,95.10
2019-01-20T14:25:23.151Z,95.30
2019-01-20T14:27:53.871Z,95.50
2019-01-20T14:30:26.689Z,95.60
2019-01-20T14:32:57.320Z,95.70
2019-01-20T14:35:35.085Z,95.80
2019-01-20T14:38:07.029Z,95.80
2019-01-20T14:40:37.680Z,96.00
2019-01-20T14:43:08.424Z,95.80
2019-01-20T14:45:39.403Z,95.90
2019-01-20T14:48:10.156Z,96.30
2019-01-20T14:50:40.959Z,96.10
2019-01-20T14:53:11.809Z,96.10
2019-01-20T14:55:42.621Z,96.10
2019-01-20T14:58:13.684Z,96.50
2019-01-20T15:00:44.715Z,96.50
2019-01-20T15:03:15.503Z,96.90
2019-01-20T15:05:47.298Z,97.00
2019-01-20T15:08:18.107Z,97.00
2019-01-20T15:10:49.024Z,97.10
2019-01-20T15:13:19.951Z,97.20
2019-01-20T15:15:50.568Z,97.40
2019-01-20T15:18:21.501Z,97.50
2019-01-20T15:20:52.366Z,97.60
2019-01-20T15:23:22.854Z,98.00
2019-01-20T15:25:53.738Z,97.70
2019-01-20T15:28:24.570Z,97.60
2019-01-20T15:30:55.661Z,97.60
2019-01-20T15:33:26.530Z,97.70
2019-01-20T15:35:57.474Z,97.90
2019-01-20T15:38:27.867Z,98.00
2019-01-20T15:40:58.834Z,98.10
2019-01-20T15:43:40.856Z,98.20
2019-01-20T15:46:11.922Z,98.00
2019-01-20T15:48:42.685Z,97.90
2019-01-20T15:51:13.793Z,97.90
2019-01-20T15:53:44.619Z,97.40
2019-01-20T15:56:15.430Z,97.30
2019-01-20T15:58:46.157Z,97.30
2019-01-20T16:01:16.961Z,97.30
2019-01-20T16:03:48.159Z,97.40
2019-01-20T16:06:18.956Z,97.30
2019-01-20T16:08:49.713Z,97.30
2019-01-20T16:11:20.499Z,97.20
2019-01-20T16:13:51.687Z,97.30
2019-01-20T16:16:22.472Z,97.50
2019-01-20T16:18:53.014Z,97.80
2019-01-20T16:21:23.927Z,97.70
2019-01-20T16:23:54.595Z,97.80
2019-01-20T16:26:26.603Z,97.70
2019-01-20T16:28:57.291Z,98.10
2019-01-20T16:31:28.287Z,97.80
2019-01-20T16:33:59.377Z,97.80
2019-01-20T16:36:30.083Z,97.90
2019-01-20T16:39:00.735Z,97.90
2019-01-20T16:41:33.045Z,97.60
2019-01-20T16:44:03.795Z,97.30
2019-01-20T16:46:34.549Z,97.00
2019-01-20T16:49:06.231Z,97.10
2019-01-20T16:51:36.714Z,97.30
2019-01-20T16:54:13.999Z,97.50
2019-01-20T16:56:44.836Z,97.60
2019-01-20T16:59:16.043Z,97.70
2019-01-20T17:01:47.518Z,97.70
2019-01-20T17:04:18.505Z,97.50
2019-01-20T17:06:49.100Z,97.80
2019-01-20T17:09:19.936Z,97.80
2019-01-20T17:11:50.468Z,97.70
2019-01-20T17:14:21.394Z,97.90
2019-01-20T17:16:52.366Z,97.90
2019-01-20T17:19:23.176Z,98.00
2019-01-20T17:21:54.187Z,98.00
2019-01-20T17:24:25.030Z,98.00
2019-01-20T17:26:56.086Z,98.00
2019-01-20T17:29:26.671Z,98.10
2019-01-20T17:31:57.436Z,98.00
2019-01-20T17:34:28.482Z,98.10
2019-01-20T17:37:04.286Z,98.00
2019-01-20T17:39:35.014Z,97.90
2019-01-20T17:42:06.104Z,98.00
2019-01-20T17:44:36.790Z,97.80
2019-01-20T17:47:07.618Z,97.90
2019-01-20T17:49:38.469Z,97.90
2019-01-20T17:52:09.433Z,97.90
2019-01-20T17:54:40.475Z,97.90
2019-01-20T17:57:11.047Z,98.00
2019-01-20T17:59:41.978Z,98.10
2019-01-20T18:02:12.582Z,98.10
2019-01-20T18:04:43.522Z,98.10
2019-01-20T18:07:14.703Z,98.30
2019-01-20T18:09:45.428Z,98.20
2019-01-20T18:12:16.191Z,98.10
2019-01-20T18:14:47.097Z,98.20
2019-01-20T18:17:17.999Z,98.30
2019-01-20T18:19:48.807Z,98.20
2019-01-20T18:22:20.258Z,98.20
2019-01-20T18:24:50.934Z,98.30
2019-01-20T18:27:21.471Z,98.10
2019-01-20T18:29:52.019Z,98.00
2019-01-20T18:32:22.855Z,98.10
2019-01-20T18:34:53.528Z,98.20
2019-01-20T18:37:24.541Z,98.20
2019-01-20T18:39:55.281Z,98.10
2019-01-20T18:42:26.036Z,98.10
2019-01-20T18:44:56.751Z,98.20
2019-01-20T18:47:27.548Z,98.30
2019-01-20T18:49:58.360Z,98.20
2019-01-20T18:52:28.944Z,98.50
2019-01-20T18:54:59.978Z,98.60
2019-01-20T18:57:30.715Z,98.50
2019-01-20T19:00:01.489Z,98.30
2019-01-20T19:02:33.728Z,98.50
2019-01-20T19:05:06.059Z,98.70
2019-01-20T19:07:37.226Z,98.70
2019-01-20T19:10:09.356Z,98.90
2019-01-20T19:12:40.568Z,99.00
2019-01-20T19:15:13.044Z,99.10
2019-01-20T19:17:43.714Z,99.20
2019-01-20T19:20:16.873Z,99.30
2019-01-20T19:22:48.465Z,99.30
2019-01-20T19:25:19.301Z,99.50
2019-01-20T19:27:50.234Z,99.50
2019-01-20T19:30:29.166Z,99.60
2019-01-20T19:33:00.190Z,99.60
2019-01-20T19:35:31.356Z,99.70
2019-01-20T19:38:01.887Z,99.80
2019-01-20T19:40:32.657Z,99.80
2019-01-20T19:43:03.386Z,99.80
2019-01-20T19:45:35.368Z,99.80
2019-01-20T19:48:06.057Z,99.90
2019-01-20T19:50:36.961Z,99.90
2019-01-20T19:53:07.938Z,99.90
2019-01-20T20:08:35.035Z,99.70
2019-01-20T20:11:06.432Z,99.90
2019-01-20T20:13:37.874Z,99.90
2019-01-20T20:16:08.751Z,99.90
2019-01-20T20:18:41.678Z,99.90
2019-01-20T20:21:12.704Z,99.90
2019-01-20T20:23:43.585Z,99.90
2019-01-20T20:26:14.175Z,99.90
2019-01-20T20:28:44.668Z,99.90
2019-01-20T20:31:16.480Z,99.90
2019-01-20T20:33:47.326Z,99.90
2019-01-20T20:36:17.852Z,99.90
2019-01-20T20:38:50.286Z,99.90
2019-01-20T20:41:21.450Z,99.90
2019-01-20T20:43:52.268Z,99.90
2019-01-20T20:46:23.224Z,99.90
2019-01-20T20:48:56.597Z,99.90
2019-01-20T20:51:28.234Z,99.90
2019-01-20T20:53:59.374Z,99.90
2019-01-20T20:56:30.276Z,99.90
2019-01-20T20:59:00.766Z,99.90
2019-01-20T21:01:31.400Z,99.90
2019-01-20T21:04:01.884Z,99.90
2019-01-20T21:06:32.579Z,99.90
2019-01-20T21:09:04.208Z,99.90
2019-01-20T21:11:36.564Z,99.90
2019-01-20T21:14:08.391Z,99.90
2019-01-20T21:16:39.047Z,99.90
2019-01-20T21:19:09.846Z,99.90
2019-01-20T21:21:40.850Z,99.90
2019-01-20T21:24:11.483Z,99.90
2019-01-20T21:26:44.536Z,99.90
2019-01-20T21:29:14.110Z,99.90
2019-01-20T21:31:44.555Z,99.90
2019-01-20T21:34:15.455Z,99.90
2019-01-20T21:36:46.251Z,99.90
2019-01-20T21:39:16.940Z,99.90
2019-01-20T21:41:47.605Z,99.90
2019-01-20T21:44:18.048Z,99.90
2019-01-20T21:46:48.834Z,99.90
2019-01-20T21:49:19.355Z,99.90
2019-01-20T21:51:49.945Z,99.90
2019-01-20T21:54:20.683Z,99.90
2019-01-20T21:56:51.303Z,99.90
2019-01-20T21:59:22.092Z,99.90
2019-01-20T22:01:52.917Z,99.90
2019-01-20T22:04:23.642Z,99.90
2019-01-20T22:06:54.392Z,99.90
2019-01-20T22:09:25.052Z,99.90
2019-01-20T22:11:55.548Z,99.90
2019-01-20T22:14:26.316Z,99.90
2019-01-20T22:16:56.835Z,99.90
2019-01-20T22:19:27.408Z,99.90
2019-01-20T22:21:57.953Z,99.90
2019-01-20T22:24:28.464Z,99.90
2019-01-20T22:26:58.978Z,99.90
2019-01-20T22:29:29.608Z,99.90
2019-01-20T22:32:00.142Z,99.80
2019-01-20T22:34:30.806Z,99.80
2019-01-20T22:37:01.262Z,99.90
2019-01-20T22:39:31.788Z,99.90
2019-01-20T22:42:02.564Z,99.90
2019-01-20T22:44:33.316Z,99.90
2019-01-20T22:47:03.792Z,99.90
2019-01-20T22:49:35.722Z,99.90
2019-01-20T22:52:06.448Z,99.90
2019-01-20T22:54:37.135Z,99.90
2019-01-20T22:57:07.591Z,99.90
2019-01-20T22:59:38.060Z,99.90
2019-01-20T23:02:10.725Z,99.90
2019-01-20T23:04:41.275Z,99.90
2019-01-20T23:07:12.069Z,99.90
2019-01-20T23:09:42.523Z,99.90
2019-01-20T23:12:13.157Z,99.90
2019-01-20T23:14:43.763Z,99.90
2019-01-20T23:17:14.291Z,99.90
2019-01-20T23:19:44.797Z,99.90
2019-01-20T23:22:15.285Z,99.90
2019-01-20T23:24:45.883Z,99.90
2019-01-20T23:27:16.385Z,99.90
2019-01-20T23:29:47.004Z,99.90
2019-01-20T23:32:17.677Z,99.90
2019-01-20T23:34:48.169Z,99.90
2019-01-20T23:37:18.814Z,99.90
2019-01-20T23:39:49.607Z,99.90
2019-01-20T23:42:20.138Z,99.90
2019-01-20T23:44:50.770Z,99.90
2019-01-20T23:47:21.400Z,99.90
2019-01-20T23:49:52.032Z,99.90
2019-01-20T23:52:22.638Z,99.90
2019-01-20T23:54:54.010Z,99.90
2019-01-20T23:57:24.542Z,99.90
2019-01-20T23:59:54.950Z,99.90
